createdAt,value
2019-05-12T00:01:28.371Z,3.45
2019-05-12T00:03:58.102Z,4.65
2019-05-12T00:06:28.331Z,4.58
2019-05-12T00:08:57.986Z,3.75
2019-05-12T00:11:28.775Z,4.20
2019-05-12T00:13:58.619Z,3.70
2019-05-12T00:16:28.378Z,4.30
2019-05-12T00:18:58.589Z,6.55
2019-05-12T00:21:28.317Z,5.20
2019-05-12T00:24:11.969Z,4.75
2019-05-12T00:26:42.101Z,5.85
2019-05-12T00:29:10.486Z,4.08
2019-05-12T00:31:38.856Z,5.35
2019-05-12T00:34:07.781Z,7.45
2019-05-12T00:36:37.988Z,6.22
2019-05-12T00:39:08.671Z,5.40
2019-05-12T00:41:38.909Z,5.58
2019-05-12T00:44:08.885Z,8.00
2019-05-12T00:46:38.546Z,6.25
2019-05-12T00:49:08.054Z,6.87
2019-05-12T00:51:38.468Z,4.78
2019-05-12T00:54:09.237Z,5.42
2019-05-12T00:56:38.937Z,6.35
2019-05-12T00:59:08.283Z,5.53
2019-05-12T01:01:38.084Z,5.87
2019-05-12T01:04:08.935Z,5.30
2019-05-12T01:06:38.763Z,7.35
2019-05-12T01:09:08.878Z,7.10
2019-05-12T01:11:37.882Z,5.75
2019-05-12T01:14:08.600Z,6.08
2019-05-12T01:16:38.537Z,7.00
2019-05-12T01:19:07.942Z,7.17
2019-05-12T01:21:37.741Z,8.43
2019-05-12T01:24:08.845Z,5.80
2019-05-12T01:26:38.569Z,7.08
2019-05-12T01:29:08.460Z,7.95
2019-05-12T01:31:38.082Z,8.18
2019-05-12T01:34:08.067Z,7.58
2019-05-12T01:36:38.121Z,7.17
2019-05-12T01:39:08.239Z,10.75
2019-05-12T01:41:38.771Z,9.63
2019-05-12T01:44:08.867Z,8.35
2019-05-12T01:46:38.285Z,9.60
2019-05-12T01:49:08.189Z,9.18
2019-05-12T01:51:38.473Z,10.63
2019-05-12T01:54:14.370Z,12.37
2019-05-12T01:56:38.297Z,9.73
2019-05-12T01:59:08.132Z,9.70
2019-05-12T02:01:38.953Z,12.30
2019-05-12T02:04:07.778Z,10.48
2019-05-12T02:06:38.397Z,10.85
2019-05-12T02:09:08.155Z,9.65
2019-05-12T02:11:37.966Z,10.60
2019-05-12T02:14:09.199Z,10.70
2019-05-12T02:16:38.725Z,13.62
2019-05-12T02:19:09.058Z,10.95
2019-05-12T02:21:38.216Z,11.70
2019-05-12T02:24:07.788Z,11.93
2019-05-12T02:26:38.216Z,12.88
2019-05-12T02:29:07.883Z,13.80
2019-05-12T02:31:39.543Z,11.25
2019-05-12T02:34:06.623Z,13.38
2019-05-12T02:36:55.578Z,12.37
2019-05-12T02:39:24.810Z,12.88
2019-05-12T02:41:54.247Z,14.53
2019-05-12T02:44:24.745Z,17.07
2019-05-12T02:46:55.248Z,13.05
2019-05-12T02:49:24.424Z,12.63
2019-05-12T02:51:54.757Z,13.03
2019-05-12T02:54:26.985Z,13.28
2019-05-12T02:56:55.108Z,12.80
2019-05-12T02:59:25.232Z,12.47
2019-05-12T03:01:56.027Z,15.88
2019-05-12T03:04:27.315Z,13.55
2019-05-12T03:06:56.435Z,13.50
2019-05-12T03:09:24.830Z,12.88
2019-05-12T03:11:55.576Z,12.80
2019-05-12T03:14:25.236Z,15.03
2019-05-12T03:16:54.023Z,14.28
2019-05-12T03:19:25.121Z,13.15
2019-05-12T03:21:54.793Z,12.53
2019-05-12T03:24:24.977Z,13.88
2019-05-12T03:26:55.272Z,13.78
2019-05-12T03:29:25.067Z,15.80
2019-05-12T03:31:57.016Z,13.68
2019-05-12T03:34:28.709Z,12.47
2019-05-12T03:36:58.735Z,14.73
2019-05-12T03:39:25.020Z,13.60
2019-05-12T03:41:54.652Z,14.30
2019-05-12T03:44:25.217Z,13.08
2019-05-12T03:46:54.346Z,12.93
2019-05-12T03:49:24.420Z,13.28
2019-05-12T03:51:54.347Z,14.75
2019-05-12T03:54:24.467Z,13.90
2019-05-12T03:56:55.701Z,15.18
2019-05-12T03:59:25.348Z,18.57
2019-05-12T04:01:55.124Z,17.75
2019-05-12T04:04:24.474Z,14.00
2019-05-12T04:06:54.391Z,14.28
2019-05-12T04:09:24.604Z,16.90
2019-05-12T04:11:54.728Z,15.13
2019-05-12T04:14:25.180Z,16.12
2019-05-12T04:16:55.039Z,15.70
2019-05-12T04:19:24.871Z,14.98
2019-05-12T04:21:54.691Z,13.72
2019-05-12T04:24:24.942Z,15.88
2019-05-12T04:26:55.140Z,15.32
2019-05-12T04:29:25.013Z,14.50
2019-05-12T04:31:54.369Z,15.78
2019-05-12T04:34:25.131Z,14.23
2019-05-12T04:36:55.401Z,14.45
2019-05-12T04:39:25.266Z,13.98
2019-05-12T04:41:55.199Z,14.20
2019-05-12T04:44:25.098Z,15.15
2019-05-12T04:46:55.453Z,14.90
2019-05-12T04:49:24.971Z,14.60
2019-05-12T04:51:54.579Z,15.38
2019-05-12T04:54:24.739Z,14.45
2019-05-12T04:56:55.166Z,13.58
2019-05-12T04:59:25.415Z,13.18
2019-05-12T05:01:54.071Z,13.38
2019-05-12T05:04:24.415Z,14.23
2019-05-12T05:06:55.008Z,14.25
2019-05-12T05:09:24.557Z,13.05
2019-05-12T05:11:54.273Z,14.90
2019-05-12T05:14:24.840Z,12.37
2019-05-12T05:16:54.276Z,14.80
2019-05-12T05:19:24.432Z,13.30
2019-05-12T05:21:54.207Z,12.85
2019-05-12T05:24:23.537Z,13.60
2019-05-12T05:26:53.991Z,13.88
2019-05-12T05:29:24.038Z,12.73
2019-05-12T05:31:53.424Z,12.75
2019-05-12T05:34:23.619Z,13.22
2019-05-12T05:36:59.475Z,12.05
2019-05-12T05:39:24.135Z,12.58
2019-05-12T05:41:53.777Z,10.30
2019-05-12T05:44:24.027Z,10.60
2019-05-12T05:46:54.509Z,10.82
2019-05-12T05:49:23.822Z,11.55
2019-05-12T05:51:57.190Z,10.00
2019-05-12T05:54:31.082Z,12.10
2019-05-12T05:56:59.654Z,10.08
2019-05-12T05:59:31.183Z,10.40
2019-05-12T06:01:54.834Z,11.73
2019-05-12T06:04:23.814Z,13.68
2019-05-12T06:06:55.731Z,9.65
2019-05-12T06:09:23.565Z,10.23
2019-05-12T06:11:54.025Z,9.93
2019-05-12T06:14:23.586Z,10.28
2019-05-12T06:16:53.767Z,9.70
2019-05-12T06:19:25.726Z,11.48
2019-05-12T06:21:53.380Z,10.15
2019-05-12T06:24:25.853Z,9.48
2019-05-12T06:27:00.237Z,12.33
2019-05-12T06:29:25.150Z,9.88
2019-05-12T06:31:54.310Z,9.18
2019-05-12T06:34:23.846Z,10.75
2019-05-12T06:36:56.482Z,9.03
2019-05-12T06:39:23.583Z,9.15
2019-05-12T06:41:55.161Z,10.65
2019-05-12T06:44:23.930Z,10.28
2019-05-12T06:47:02.542Z,9.73
2019-05-12T06:49:24.640Z,9.03
2019-05-12T06:52:01.312Z,12.78
2019-05-12T06:54:24.786Z,9.78
2019-05-12T06:56:57.839Z,10.00
2019-05-12T06:59:23.812Z,8.93
2019-05-12T07:01:58.779Z,12.68
2019-05-12T07:04:24.012Z,9.58
2019-05-12T07:06:56.244Z,11.85
2019-05-12T07:09:24.993Z,9.75
2019-05-12T07:12:01.755Z,9.65
2019-05-12T07:14:26.978Z,11.65
2019-05-12T07:17:01.827Z,8.48
2019-05-12T07:19:25.554Z,8.75
2019-05-12T07:21:58.242Z,10.08
2019-05-12T07:24:24.140Z,8.13
2019-05-12T07:26:54.741Z,7.60
2019-05-12T07:29:23.875Z,7.67
2019-05-12T07:31:53.683Z,9.93
2019-05-12T07:34:24.032Z,11.25
2019-05-12T07:36:53.801Z,8.00
2019-05-12T07:39:24.192Z,8.13
2019-05-12T07:41:54.897Z,8.35
2019-05-12T07:44:25.141Z,8.65
2019-05-12T07:46:54.074Z,7.67
2019-05-12T07:49:33.833Z,6.72
2019-05-12T07:51:54.230Z,6.90
2019-05-12T07:54:23.567Z,7.45
2019-05-12T07:56:53.980Z,8.55
2019-05-12T07:59:26.609Z,5.15
2019-05-12T08:01:54.917Z,5.92
2019-05-12T08:04:23.929Z,7.53
2019-05-12T08:06:53.818Z,9.75
2019-05-12T08:09:24.137Z,8.30
2019-05-12T08:11:54.052Z,5.90
2019-05-12T08:14:28.828Z,7.80
2019-05-12T08:16:54.344Z,5.75
2019-05-12T08:19:25.493Z,8.65
2019-05-12T08:21:53.735Z,5.35
2019-05-12T08:24:23.748Z,8.38
2019-05-12T08:26:59.676Z,6.75
2019-05-12T08:29:24.271Z,7.22
2019-05-12T08:31:54.648Z,8.45
2019-05-12T08:34:23.726Z,6.10
2019-05-12T08:36:56.774Z,7.55
2019-05-12T08:39:25.366Z,8.80
2019-05-12T08:41:53.563Z,6.15
2019-05-12T08:44:24.665Z,6.85
2019-05-12T08:46:55.878Z,6.65
2019-05-12T08:49:23.526Z,4.90
2019-05-12T08:51:55.770Z,6.58
2019-05-12T08:54:23.276Z,6.10
2019-05-12T08:56:59.387Z,8.48
2019-05-12T08:59:26.511Z,7.87
2019-05-12T09:01:54.121Z,5.92
2019-05-12T09:04:21.872Z,5.80
2019-05-12T09:06:55.374Z,7.70
2019-05-12T09:09:20.291Z,4.05
2019-05-12T09:11:48.709Z,5.75
2019-05-12T09:14:17.085Z,9.43
2019-05-12T09:16:45.510Z,5.28
2019-05-12T09:19:18.245Z,5.90
2019-05-12T09:21:44.362Z,4.75
2019-05-12T09:24:13.619Z,4.45
2019-05-12T09:26:43.357Z,7.00
2019-05-12T09:29:13.830Z,6.60
2019-05-12T09:31:44.038Z,5.47
2019-05-12T09:34:16.224Z,6.85
2019-05-12T09:36:44.219Z,6.37
2019-05-12T09:39:14.219Z,5.55
2019-05-12T09:41:49.458Z,5.72
2019-05-12T09:44:13.401Z,5.22
2019-05-12T09:46:43.922Z,6.22
2019-05-12T09:49:14.130Z,6.47
2019-05-12T09:51:45.222Z,6.75
2019-05-12T09:54:13.934Z,4.87
2019-05-12T09:56:44.092Z,4.45
2019-05-12T09:59:20.776Z,4.58
2019-05-12T10:01:45.711Z,7.28
2019-05-12T10:04:17.221Z,7.80
2019-05-12T10:06:44.299Z,6.85
2019-05-12T10:09:15.665Z,5.92
2019-05-12T10:11:44.501Z,3.40
2019-05-12T10:14:13.954Z,4.42
2019-05-12T10:16:45.538Z,5.70
2019-05-12T10:19:14.305Z,6.67
2019-05-12T10:21:44.043Z,5.72
2019-05-12T10:24:12.336Z,6.67
2019-05-12T10:26:41.102Z,5.10
2019-05-12T10:29:17.659Z,5.37
2019-05-12T10:31:40.798Z,5.70
2019-05-12T10:34:23.561Z,6.95
2019-05-12T10:36:53.462Z,6.35
2019-05-12T10:39:24.105Z,6.95
2019-05-12T10:41:53.919Z,6.67
2019-05-12T10:44:21.856Z,5.22
2019-05-12T10:46:53.727Z,4.80
2019-05-12T10:49:23.782Z,7.08
2019-05-12T10:51:53.957Z,4.83
2019-05-12T10:54:24.154Z,4.72
2019-05-12T10:56:54.608Z,6.35
2019-05-12T10:59:32.275Z,5.45
2019-05-12T11:01:54.066Z,6.03
2019-05-12T11:04:35.285Z,5.05
2019-05-12T11:06:53.825Z,5.20
2019-05-12T11:09:29.460Z,4.37
2019-05-12T11:11:54.090Z,6.62
2019-05-12T11:14:26.395Z,8.40
2019-05-12T11:16:54.227Z,3.35
2019-05-12T11:19:23.089Z,4.90
2019-05-12T11:21:53.623Z,4.28
2019-05-12T11:24:21.797Z,5.50
2019-05-12T11:26:50.544Z,4.22
2019-05-12T11:29:18.951Z,4.08
2019-05-12T11:31:47.459Z,6.28
2019-05-12T11:34:15.831Z,3.92
2019-05-12T11:36:44.264Z,3.65
2019-05-12T11:39:14.240Z,3.90
2019-05-12T11:41:44.252Z,6.05
2019-05-12T11:44:13.256Z,3.87
2019-05-12T11:46:44.080Z,3.12
2019-05-12T11:49:13.779Z,4.17
2019-05-12T11:51:41.954Z,3.70
2019-05-12T11:54:10.915Z,6.55
2019-05-12T11:56:45.724Z,5.58
2019-05-12T11:59:10.530Z,3.87
2019-05-12T12:01:44.385Z,5.58
2019-05-12T12:04:09.228Z,3.83
2019-05-12T12:06:37.590Z,4.62
2019-05-12T12:09:09.303Z,5.25
2019-05-12T12:11:37.252Z,5.55
2019-05-12T12:14:10.327Z,4.17
2019-05-12T12:16:35.693Z,5.75
2019-05-12T12:19:05.890Z,3.50
2019-05-12T12:21:35.117Z,3.47
2019-05-12T12:24:04.086Z,4.33
2019-05-12T12:26:34.879Z,4.42
2019-05-12T12:29:03.301Z,3.65
2019-05-12T12:31:35.546Z,4.30
2019-05-12T12:34:04.031Z,3.15
2019-05-12T12:36:34.187Z,6.58
2019-05-12T12:39:04.161Z,4.65
2019-05-12T12:41:34.134Z,4.92
2019-05-12T12:44:04.519Z,5.00
2019-05-12T12:46:33.824Z,4.50
2019-05-12T12:49:06.434Z,4.40
2019-05-12T12:51:34.134Z,4.97
2019-05-12T12:54:03.280Z,3.58
2019-05-12T12:56:33.979Z,3.90
2019-05-12T12:59:10.157Z,2.90
2019-05-12T13:01:33.490Z,3.33
2019-05-12T13:04:04.889Z,3.02
2019-05-12T13:06:34.383Z,6.22
2019-05-12T13:09:09.847Z,4.20
2019-05-12T13:11:34.757Z,2.98
2019-05-12T13:14:04.085Z,2.17
2019-05-12T13:16:34.365Z,2.47
2019-05-12T13:19:12.322Z,3.35
2019-05-12T13:21:35.835Z,3.25
2019-05-12T13:24:04.227Z,3.02
2019-05-12T13:26:32.603Z,4.30
2019-05-12T13:29:01.141Z,5.10
2019-05-12T13:31:29.587Z,5.62
2019-05-12T13:33:58.095Z,2.27
2019-05-12T13:36:29.385Z,3.15
2019-05-12T13:38:57.064Z,5.10
2019-05-12T13:41:25.931Z,1.90
2019-05-12T13:43:59.022Z,1.80
2019-05-12T13:46:24.492Z,2.08
2019-05-12T13:48:57.677Z,2.52
2019-05-12T13:51:24.154Z,2.90
2019-05-12T13:53:52.844Z,2.47
2019-05-12T13:56:25.374Z,3.40
2019-05-12T13:58:53.974Z,4.45
2019-05-12T14:01:24.690Z,2.70
2019-05-12T14:03:53.583Z,3.65
2019-05-12T14:06:31.515Z,2.35
2019-05-12T14:08:53.758Z,4.72
2019-05-12T14:11:23.919Z,3.25
2019-05-12T14:13:53.981Z,3.30
2019-05-12T14:16:23.874Z,2.08
2019-05-12T14:18:57.042Z,2.87
2019-05-12T14:21:24.459Z,4.80
2019-05-12T14:23:53.236Z,2.10
2019-05-12T14:26:24.119Z,2.35
2019-05-12T14:28:53.352Z,2.05
2019-05-12T14:31:29.296Z,4.50
2019-05-12T14:33:53.895Z,4.87
2019-05-12T14:36:26.643Z,3.02
2019-05-12T14:39:00.237Z,3.77
2019-05-12T14:41:27.082Z,2.67
2019-05-12T14:44:01.715Z,3.65
2019-05-12T14:46:26.263Z,1.80
2019-05-12T14:48:55.003Z,3.90
2019-05-12T14:51:24.534Z,2.55
2019-05-12T14:53:53.549Z,3.87
2019-05-12T14:56:23.327Z,2.10
2019-05-12T14:58:56.449Z,2.20
2019-05-12T15:01:23.873Z,3.80
2019-05-12T15:03:53.482Z,3.02
2019-05-12T15:06:25.703Z,2.70
2019-05-12T15:08:54.092Z,2.92
2019-05-12T15:11:23.697Z,3.15
2019-05-12T15:13:54.157Z,3.40
2019-05-12T15:16:23.784Z,2.27
2019-05-12T15:18:54.177Z,2.58
2019-05-12T15:21:28.894Z,1.70
2019-05-12T15:23:53.345Z,1.72
2019-05-12T15:26:23.969Z,2.87
2019-05-12T15:28:54.042Z,3.12
2019-05-12T15:31:23.560Z,2.92
2019-05-12T15:33:52.025Z,2.37
2019-05-12T15:36:20.417Z,2.02
2019-05-12T15:38:53.971Z,2.60
2019-05-12T15:41:20.031Z,1.90
2019-05-12T15:43:49.185Z,3.70
2019-05-12T15:46:17.809Z,2.22
2019-05-12T15:48:46.188Z,2.77
2019-05-12T15:51:14.575Z,2.98
2019-05-12T15:53:44.616Z,2.55
2019-05-12T15:56:17.566Z,2.95
2019-05-12T15:58:44.123Z,1.52
2019-05-12T16:01:13.925Z,2.30
2019-05-12T16:03:43.814Z,1.50
2019-05-12T16:06:14.817Z,1.92
2019-05-12T16:08:42.415Z,2.15
2019-05-12T16:11:10.807Z,2.55
2019-05-12T16:13:39.188Z,2.62
2019-05-12T16:16:07.569Z,2.25
2019-05-12T16:18:40.395Z,2.85
2019-05-12T16:21:09.335Z,1.98
2019-05-12T16:23:36.014Z,2.83
2019-05-12T16:26:08.134Z,2.62
2019-05-12T16:28:34.529Z,2.83
2019-05-12T16:31:05.215Z,1.00
2019-05-12T16:33:33.415Z,3.17
2019-05-12T16:36:06.582Z,1.80
2019-05-12T16:38:32.203Z,2.08
2019-05-12T16:41:00.610Z,1.65
2019-05-12T16:43:29.262Z,1.35
2019-05-12T16:45:58.997Z,2.02
2019-05-12T16:48:32.892Z,2.47
2019-05-12T16:50:57.415Z,3.27
2019-05-12T16:53:27.822Z,2.58
2019-05-12T16:55:55.807Z,2.90
2019-05-12T16:58:32.650Z,1.60
2019-05-12T17:00:54.216Z,1.25
2019-05-12T17:03:23.683Z,2.87
2019-05-12T17:05:55.973Z,1.47
2019-05-12T17:08:24.066Z,2.40
2019-05-12T17:11:01.313Z,2.60
2019-05-12T17:13:23.555Z,2.22
2019-05-12T17:15:57.735Z,2.95
2019-05-12T17:18:24.603Z,2.33
2019-05-12T17:20:54.549Z,1.85
2019-05-12T17:23:24.651Z,3.42
2019-05-12T17:25:53.841Z,2.83
2019-05-12T17:28:23.899Z,1.95
2019-05-12T17:30:54.448Z,1.77
2019-05-12T17:33:26.669Z,4.40
2019-05-12T17:35:53.439Z,3.98
2019-05-12T17:38:25.054Z,1.30
2019-05-12T17:40:58.789Z,2.37
2019-05-12T17:43:23.279Z,3.10
2019-05-12T17:45:59.559Z,2.17
2019-05-12T17:48:23.385Z,3.85
2019-05-12T17:50:53.942Z,3.27
2019-05-12T17:53:24.056Z,3.02
2019-05-12T17:55:54.071Z,3.25
2019-05-12T17:58:24.040Z,3.08
2019-05-12T18:00:52.156Z,1.87
2019-05-12T18:03:22.042Z,4.17
2019-05-12T18:05:50.628Z,3.15
2019-05-12T18:08:24.009Z,3.80
2019-05-12T18:10:49.144Z,3.98
2019-05-12T18:13:23.139Z,1.87
2019-05-12T18:15:47.624Z,2.77
2019-05-12T18:18:17.546Z,2.25
2019-05-12T18:20:46.223Z,2.62
2019-05-12T18:23:19.749Z,3.17
2019-05-12T18:25:44.712Z,4.40
2019-05-12T18:28:13.992Z,5.28
2019-05-12T18:30:42.555Z,3.52
2019-05-12T18:33:13.579Z,2.62
2019-05-12T18:35:40.971Z,3.27
2019-05-12T18:38:18.162Z,1.55
2019-05-12T18:40:39.463Z,3.90
2019-05-12T18:43:07.863Z,1.90
2019-05-12T18:45:36.242Z,2.27
2019-05-12T18:48:08.385Z,1.50
2019-05-12T18:50:34.702Z,3.42
2019-05-12T18:53:03.139Z,1.90
2019-05-12T18:55:35.949Z,4.42
2019-05-12T18:58:04.177Z,2.47
2019-05-12T19:00:33.789Z,3.80
2019-05-12T19:03:06.354Z,3.00
2019-05-12T19:05:31.910Z,4.92
2019-05-12T19:08:00.342Z,2.52
2019-05-12T19:10:28.763Z,3.20
2019-05-12T19:13:01.662Z,4.28
2019-05-12T19:15:27.162Z,3.98
2019-05-12T19:17:55.528Z,3.25
2019-05-12T19:20:24.228Z,3.90
2019-05-12T19:22:59.109Z,5.30
2019-05-12T19:25:23.781Z,2.35
2019-05-12T19:28:01.980Z,4.30
2019-05-12T19:30:25.385Z,5.05
2019-05-12T19:32:54.588Z,4.05
2019-05-12T19:35:23.490Z,2.30
2019-05-12T19:37:53.893Z,4.03
2019-05-12T19:40:22.097Z,2.17
2019-05-12T19:42:53.675Z,3.45
2019-05-12T19:45:21.805Z,2.85
2019-05-12T19:47:50.551Z,3.83
2019-05-12T19:50:18.936Z,4.95
2019-05-12T19:52:47.314Z,1.77
2019-05-12T19:55:15.697Z,3.15
2019-05-12T19:57:44.496Z,1.98
2019-05-12T20:00:13.930Z,2.05
2019-05-12T20:02:42.455Z,1.80
2019-05-12T20:05:14.306Z,2.85
2019-05-12T20:07:40.917Z,2.17
2019-05-12T20:10:12.677Z,2.47
2019-05-12T20:12:39.302Z,2.35
2019-05-12T20:15:07.692Z,3.12
2019-05-12T20:17:36.073Z,3.65
2019-05-12T20:20:04.968Z,4.30
2019-05-12T20:22:33.569Z,2.95
2019-05-12T20:25:04.053Z,2.37
2019-05-12T20:27:34.297Z,2.72
2019-05-12T20:30:08.982Z,2.02
2019-05-12T20:32:34.298Z,2.50
2019-05-12T20:35:04.243Z,2.85
2019-05-12T20:37:33.707Z,2.33
2019-05-12T20:40:05.158Z,2.95
2019-05-12T20:42:42.212Z,4.33
2019-05-12T20:45:07.046Z,3.17
2019-05-12T20:47:38.953Z,3.33
2019-05-12T20:50:07.515Z,2.45
2019-05-12T20:52:39.543Z,2.92
2019-05-12T20:55:05.944Z,3.70
2019-05-12T20:57:34.628Z,3.33
2019-05-12T21:00:08.215Z,4.28
2019-05-12T21:02:35.448Z,3.72
2019-05-12T21:05:14.562Z,2.72
2019-05-12T21:07:36.108Z,3.47
2019-05-12T21:10:07.383Z,3.60
2019-05-12T21:12:40.075Z,3.42
2019-05-12T21:15:15.919Z,2.27
2019-05-12T21:17:43.104Z,2.22
2019-05-12T21:20:11.542Z,2.25
2019-05-12T21:22:39.012Z,2.67
2019-05-12T21:25:10.703Z,2.15
2019-05-12T21:27:37.593Z,3.25
2019-05-12T21:30:11.602Z,4.75
2019-05-12T21:32:36.443Z,3.70
2019-05-12T21:35:18.172Z,2.62
2019-05-12T21:37:38.657Z,2.05
2019-05-12T21:40:06.377Z,2.12
2019-05-12T21:42:34.744Z,2.17
2019-05-12T21:45:04.494Z,1.87
2019-05-12T21:47:36.351Z,3.02
2019-05-12T21:50:04.840Z,2.75
2019-05-12T21:52:37.735Z,2.35
2019-05-12T21:55:06.128Z,2.77
2019-05-12T21:57:34.555Z,2.15
2019-05-12T22:00:04.936Z,2.98
2019-05-12T22:02:34.118Z,5.47
2019-05-12T22:05:04.196Z,8.45
2019-05-12T22:07:37.997Z,1.95
2019-05-12T22:10:04.837Z,3.65
2019-05-12T22:12:33.403Z,4.25
2019-05-12T22:15:03.752Z,3.17
2019-05-12T22:17:33.580Z,3.40
2019-05-12T22:20:08.507Z,3.25
2019-05-12T22:22:33.203Z,4.10
2019-05-12T22:25:01.862Z,2.60
2019-05-12T22:27:31.023Z,4.20
2019-05-12T22:29:59.717Z,3.10
2019-05-12T22:32:29.690Z,2.83
2019-05-12T22:34:58.180Z,5.30
2019-05-12T22:37:29.459Z,4.95
2019-05-12T22:39:56.874Z,2.02
2019-05-12T22:42:25.390Z,2.77
2019-05-12T22:45:01.595Z,2.90
2019-05-12T22:47:24.171Z,3.22
2019-05-12T22:49:56.936Z,3.10
2019-05-12T22:52:23.872Z,2.87
2019-05-12T22:54:53.789Z,3.02
2019-05-12T22:57:24.195Z,3.75
2019-05-12T22:59:53.201Z,3.75
2019-05-12T23:02:25.344Z,4.67
2019-05-12T23:04:51.663Z,2.70
2019-05-12T23:07:25.418Z,1.70
2019-05-12T23:09:50.507Z,2.10
2019-05-12T23:12:20.235Z,4.10
2019-05-12T23:14:56.480Z,4.90
2019-05-12T23:17:19.091Z,2.67
2019-05-12T23:19:51.434Z,4.12
2019-05-12T23:22:17.477Z,2.95
2019-05-12T23:24:45.851Z,1.60
2019-05-12T23:27:18.806Z,3.77
2019-05-12T23:29:44.481Z,4.70
2019-05-12T23:32:15.049Z,2.90
2019-05-12T23:34:44.984Z,2.95
2019-05-12T23:37:14.139Z,1.98
2019-05-12T23:39:44.283Z,5.17
2019-05-12T23:42:13.643Z,1.70
2019-05-12T23:44:44.244Z,2.80
2019-05-12T23:47:12.246Z,2.47
2019-05-12T23:49:40.611Z,1.82
2019-05-12T23:52:09.023Z,3.40
2019-05-12T23:54:37.427Z,2.83
2019-05-12T23:57:05.808Z,3.05
2019-05-12T23:59:34.184Z,3.35
